Time;durP1;ratioP1;P1;durP2;ratioP2;P2;SDS_P1;SDS_P2;PMS_P1;PMS_P2;Temp;Humidity;BMP_temperature;BMP_pressure;BME280_temperature;BME280_humidity;BME280_pressure;Samples;Min_cycle;Max_cycle;Signal;HPM_P1;HPM_P2
2021/08/21 00:00:37;;;;;;;1.38;1.25;;;15.40;99.90;;;;;;4991216;28;20073;-68
2021/08/21 00:03:08;;;;;;;1.73;1.45;;;15.40;99.90;;;;;;4991229;28;20060;-65
2021/08/21 00:05:35;;;;;;;4.97;2.20;;;15.40;99.90;;;;;;4990236;28;20054;-67
2021/08/21 00:08:03;;;;;;;3.53;1.08;;;15.40;99.90;;;;;;4991358;28;20106;-65
2021/08/21 00:10:32;;;;;;;5.57;1.17;;;15.40;99.90;;;;;;4991452;28;20133;-68
2021/08/21 00:12:59;;;;;;;1.38;1.20;;;15.40;99.90;;;;;;4991384;28;20101;-68
2021/08/21 00:15:27;;;;;;;1.52;1.10;;;15.40;99.90;;;;;;4990222;28;20078;-65
2021/08/21 00:17:54;;;;;;;1.55;1.00;;;15.50;99.90;;;;;;4991490;28;20085;-74
2021/08/21 00:20:22;;;;;;;1.20;1.02;;;15.40;99.90;;;;;;4991184;28;20476;-76
2021/08/21 00:22:49;;;;;;;3.33;1.27;;;15.40;99.90;;;;;;4991095;28;20085;-65
2021/08/21 00:25:16;;;;;;;2.40;1.45;;;15.40;99.90;;;;;;4989726;28;20485;-66
2021/08/21 00:27:43;;;;;;;2.03;0.75;;;15.50;99.90;;;;;;4990877;28;20155;-66
2021/08/21 00:30:11;;;;;;;1.75;0.82;;;15.40;99.90;;;;;;4991174;28;20165;-64
2021/08/21 00:32:38;;;;;;;1.70;1.10;;;15.50;99.90;;;;;;4990547;28;20520;-64
2021/08/21 00:35:07;;;;;;;3.20;1.25;;;15.50;99.90;;;;;;4990932;28;20096;-68
2021/08/21 00:37:34;;;;;;;1.40;1.13;;;15.50;99.90;;;;;;4988051;28;20050;-65
2021/08/21 00:40:02;;;;;;;1.17;0.75;;;15.50;99.90;;;;;;4990688;28;20050;-65
2021/08/21 00:42:29;;;;;;;1.33;1.23;;;15.50;99.90;;;;;;4991363;28;20054;-67
2021/08/21 00:44:56;;;;;;;1.60;1.48;;;15.50;99.90;;;;;;4991076;28;20073;-68
2021/08/21 00:47:23;;;;;;;1.73;1.15;;;15.50;99.90;;;;;;4991220;28;20408;-68
2021/08/21 00:49:54;;;;;;;1.50;1.02;;;15.50;99.90;;;;;;4994634;28;20051;-77
2021/08/21 00:52:34;;;;;;;2.25;0.93;;;15.50;99.90;;;;;;4994461;28;20142;-67
2021/08/21 00:55:01;;;;;;;1.38;1.27;;;15.50;99.90;;;;;;4993548;28;20394;-77
2021/08/21 00:57:30;;;;;;;1.73;1.40;;;15.40;99.90;;;;;;4993722;28;20146;-65
2021/08/21 00:59:57;;;;;;;1.38;1.05;;;15.50;99.90;;;;;;4993228;28;20074;-66
2021/08/21 01:02:24;;;;;;;3.13;1.17;;;15.50;99.90;;;;;;4994379;28;20074;-76
2021/08/21 01:04:56;;;;;;;1.80;0.90;;;15.50;99.90;;;;;;4994404;28;20078;-74
2021/08/21 01:07:35;;;;;;;2.15;1.30;;;15.40;99.90;;;;;;4991672;28;20054;-65
2021/08/21 01:10:10;;;;;;;2.03;1.20;;;15.50;99.90;;;;;;4993229;28;20453;-65
2021/08/21 01:12:41;;;;;;;3.78;1.08;;;15.40;99.90;;;;;;4993419;28;20465;-65
2021/08/21 01:15:09;;;;;;;1.13;1.02;;;15.40;99.90;;;;;;4993135;28;20046;-65
2021/08/21 01:17:36;;;;;;;0.95;0.90;;;15.40;99.90;;;;;;4990968;28;20057;-69
2021/08/21 01:20:07;;;;;;;1.20;1.10;;;15.40;99.90;;;;;;4993104;28;20055;-67
2021/08/21 01:22:36;;;;;;;1.55;0.93;;;15.30;99.90;;;;;;4992877;28;20124;-64
2021/08/21 01:25:16;;;;;;;2.85;1.10;;;15.30;99.90;;;;;;4991310;28;20060;-65
2021/08/21 01:27:43;;;;;;;3.95;1.73;;;15.30;99.90;;;;;;4992821;28;20137;-67
2021/08/21 01:30:17;;;;;;;1.98;1.15;;;15.30;99.90;;;;;;4992978;28;20046;-65
2021/08/21 01:32:49;;;;;;;2.83;1.35;;;15.30;99.90;;;;;;4994073;28;20047;-68
2021/08/21 01:35:20;;;;;;;0.93;0.90;;;15.30;99.90;;;;;;4991366;28;20081;-67
2021/08/21 01:37:47;;;;;;;2.75;1.13;;;15.20;99.90;;;;;;4992407;28;20212;-64
2021/08/21 01:40:52;;;;;;;0.90;0.90;;;15.20;99.90;;;;;;4985847;28;20130;-65
2021/08/21 01:43:24;;;;;;;1.45;1.35;;;15.10;99.90;;;;;;4991156;28;20415;-65
2021/08/21 01:45:52;;;;;;;1.23;1.10;;;15.10;99.90;;;;;;4992875;28;20112;-71
2021/08/21 01:48:21;;;;;;;1.17;1.00;;;15.10;99.90;;;;;;4992129;28;20138;-65
2021/08/21 01:50:48;;;;;;;1.98;1.13;;;15.10;99.90;;;;;;4992431;28;20046;-70
2021/08/21 01:53:18;;;;;;;3.17;1.23;;;15.10;99.90;;;;;;4992005;28;20050;-65
2021/08/21 01:55:48;;;;;;;1.35;1.23;;;15.10;99.90;;;;;;4992009;28;20054;-69
2021/08/21 01:58:33;;;;;;;1.38;1.08;;;15.10;99.90;;;;;;4992510;28;20049;-65
2021/08/21 02:01:25;;;;;;;1.38;1.10;;;15.10;99.90;;;;;;4990333;28;20396;-64
2021/08/21 02:04:22;;;;;;;1.90;1.58;;;15.10;99.90;;;;;;4989244;28;20047;-66
2021/08/21 02:06:52;;;;;;;1.90;1.40;;;15.00;99.90;;;;;;4992040;28;20065;-72
2021/08/21 02:09:23;;;;;;;2.78;1.10;;;15.00;99.90;;;;;;4990584;28;20062;-65
2021/08/21 02:11:51;;;;;;;3.03;1.02;;;15.10;99.90;;;;;;4993359;28;20404;-71
2021/08/21 02:14:19;;;;;;;2.50;1.00;;;15.00;99.90;;;;;;4993238;28;20050;-64
2021/08/21 02:16:50;;;;;;;3.63;1.20;;;15.10;99.90;;;;;;4993579;28;20120;-66
2021/08/21 02:19:18;;;;;;;1.42;1.33;;;15.00;99.90;;;;;;4990336;28;20368;-65
2021/08/21 02:22:04;;;;;;;1.40;1.17;;;15.00;99.90;;;;;;4991765;28;20073;-66
2021/08/21 02:24:33;;;;;;;1.88;1.55;;;15.00;99.90;;;;;;4991469;28;20057;-66
2021/08/21 02:27:03;;;;;;;1.45;1.30;;;15.00;99.90;;;;;;4993244;28;20038;-67
2021/08/21 02:29:30;;;;;;;1.98;1.30;;;14.90;99.90;;;;;;4991520;28;20054;-72
2021/08/21 02:31:59;;;;;;;1.25;1.15;;;14.90;99.90;;;;;;4992873;28;20373;-65
2021/08/21 02:34:28;;;;;;;15.07;1.50;;;15.00;99.90;;;;;;4992942;28;20097;-66
2021/08/21 02:36:55;;;;;;;1.98;1.02;;;15.00;99.90;;;;;;4991236;28;20468;-76
2021/08/21 02:39:22;;;;;;;1.77;0.90;;;14.90;99.90;;;;;;4989829;28;20528;-66
2021/08/21 02:41:49;;;;;;;5.72;1.75;;;15.00;99.90;;;;;;4992942;28;20047;-66
2021/08/21 02:44:17;;;;;;;3.17;1.10;;;15.00;99.90;;;;;;4991196;28;20061;-71
2021/08/21 02:46:44;;;;;;;2.65;1.67;;;14.90;99.90;;;;;;4991224;28;20112;-70
2021/08/21 02:49:11;;;;;;;1.60;1.10;;;14.90;99.90;;;;;;4991063;28;20108;-65
2021/08/21 02:51:38;;;;;;;3.60;1.85;;;14.90;99.90;;;;;;4992180;28;20470;-67
2021/08/21 02:54:04;;;;;;;1.55;1.45;;;14.90;99.90;;;;;;4992302;28;20515;-67
2021/08/21 02:56:32;;;;;;;1.77;1.30;;;15.00;99.90;;;;;;4992519;28;20073;-65
2021/08/21 02:58:59;;;;;;;1.02;0.90;;;14.90;99.90;;;;;;4990569;28;20047;-64
2021/08/21 03:01:26;;;;;;;3.92;1.30;;;14.90;99.90;;;;;;4973479;28;20100;-65
2021/08/21 03:03:54;;;;;;;2.67;1.02;;;14.90;99.90;;;;;;4990429;28;20158;-72
2021/08/21 03:06:23;;;;;;;1.75;1.23;;;14.90;99.90;;;;;;4990781;28;20390;-67
2021/08/21 03:08:50;;;;;;;3.30;1.10;;;14.90;99.90;;;;;;4992618;28;20046;-65
2021/08/21 03:11:18;;;;;;;3.60;1.88;;;14.90;99.90;;;;;;4989007;28;20047;-65
2021/08/21 03:14:16;;;;;;;2.15;1.88;;;14.80;99.90;;;;;;4992026;28;20077;-74
2021/08/21 03:16:43;;;;;;;3.33;1.60;;;14.80;99.90;;;;;;4990524;28;20058;-65
2021/08/21 03:19:11;;;;;;;1.17;1.08;;;14.80;99.90;;;;;;4989138;28;20592;-65
2021/08/21 03:21:38;;;;;;;2.17;1.40;;;14.90;99.90;;;;;;4990758;28;20052;-65
2021/08/21 03:24:06;;;;;;;2.95;0.80;;;14.90;99.90;;;;;;4990843;28;20566;-65
2021/08/21 03:26:39;;;;;;;2.92;1.38;;;14.80;99.90;;;;;;4990865;28;20077;-68
2021/08/21 03:29:08;;;;;;;1.73;1.02;;;14.80;99.90;;;;;;4990621;28;20452;-66
2021/08/21 03:31:35;;;;;;;2.20;1.38;;;14.80;99.90;;;;;;4988779;28;20112;-65
2021/08/21 03:34:02;;;;;;;1.38;1.27;;;14.80;99.90;;;;;;4990397;28;20405;-67
2021/08/21 03:36:31;;;;;;;1.83;1.38;;;14.80;99.90;;;;;;4990325;28;20058;-65
2021/08/21 03:38:58;;;;;;;1.30;1.13;;;14.80;99.90;;;;;;4992014;28;20054;-65
2021/08/21 03:41:25;;;;;;;1.25;1.15;;;14.80;99.90;;;;;;4988714;28;20129;-68
2021/08/21 03:44:03;;;;;;;6.55;1.73;;;14.80;99.90;;;;;;4990452;28;20154;-67
2021/08/21 03:46:33;;;;;;;3.40;1.63;;;14.80;99.90;;;;;;4990138;28;20134;-65
2021/08/21 03:49:00;;;;;;;2.03;1.17;;;14.80;99.90;;;;;;4990178;28;20109;-67
2021/08/21 03:51:29;;;;;;;2.75;2.42;;;14.80;99.90;;;;;;4988799;28;20045;-70
2021/08/21 03:53:56;;;;;;;2.13;0.80;;;14.80;99.90;;;;;;4989853;28;20069;-68
2021/08/21 03:56:24;;;;;;;4.63;1.20;;;14.80;99.90;;;;;;4990151;28;20477;-65
2021/08/21 03:58:58;;;;;;;1.60;1.50;;;14.80;99.90;;;;;;4990320;28;20439;-65
2021/08/21 04:01:25;;;;;;;1.10;1.08;;;14.80;99.90;;;;;;4988196;28;20046;-69
2021/08/21 04:04:05;;;;;;;1.07;0.93;;;14.80;99.90;;;;;;4990357;28;20105;-65
2021/08/21 04:06:40;;;;;;;1.50;1.40;;;14.80;99.90;;;;;;4990013;28;20058;-65
2021/08/21 04:09:10;;;;;;;2.72;1.50;;;14.80;99.90;;;;;;4988510;28;20046;-69
2021/08/21 04:11:40;;;;;;;2.20;1.67;;;14.80;99.90;;;;;;4989802;28;20057;-73
2021/08/21 04:14:11;;;;;;;4.38;1.60;;;14.90;99.90;;;;;;4989868;28;20054;-65
2021/08/21 04:16:39;;;;;;;1.38;1.27;;;14.80;99.90;;;;;;4989913;28;20513;-65
2021/08/21 04:19:06;;;;;;;3.35;1.42;;;14.80;99.90;;;;;;4991335;28;20392;-68
2021/08/21 04:21:39;;;;;;;1.40;1.00;;;14.80;99.90;;;;;;4988538;28;20042;-65
2021/08/21 04:24:13;;;;;;;2.30;1.90;;;14.80;99.90;;;;;;4993576;28;20046;-70
2021/08/21 04:26:42;;;;;;;2.42;1.38;;;14.90;99.90;;;;;;4993656;28;20133;-66
2021/08/21 04:29:13;;;;;;;3.95;1.65;;;14.90;99.90;;;;;;4991994;28;20073;-67
2021/08/21 04:31:40;;;;;;;1.65;1.55;;;14.90;99.90;;;;;;4993821;28;20137;-65
2021/08/21 04:34:08;;;;;;;2.42;1.63;;;14.90;99.90;;;;;;4993648;28;20093;-65
2021/08/21 04:36:35;;;;;;;1.58;1.45;;;14.90;99.90;;;;;;4993533;28;20042;-66
2021/08/21 04:39:02;;;;;;;1.60;1.27;;;15.00;99.90;;;;;;4993664;28;20058;-66
2021/08/21 04:41:29;;;;;;;1.33;1.00;;;15.00;99.90;;;;;;4992273;28;20075;-65
2021/08/21 04:43:58;;;;;;;1.90;1.60;;;15.00;99.90;;;;;;4993577;28;20136;-68
2021/08/21 04:46:26;;;;;;;2.17;1.73;;;15.10;99.90;;;;;;4993406;28;20121;-65
2021/08/21 04:48:53;;;;;;;2.28;1.48;;;15.10;99.90;;;;;;4993530;28;20050;-66
2021/08/21 04:51:20;;;;;;;6.22;2.17;;;15.10;99.90;;;;;;4992088;28;20070;-65
2021/08/21 04:53:47;;;;;;;2.03;1.50;;;15.10;99.90;;;;;;4993620;28;20058;-66
2021/08/21 04:56:14;;;;;;;1.45;1.27;;;15.10;99.90;;;;;;4993152;28;20046;-71
2021/08/21 04:59:00;;;;;;;2.42;1.42;;;15.10;99.90;;;;;;4994562;28;20148;-71
2021/08/21 05:01:27;;;;;;;1.30;1.10;;;15.10;99.90;;;;;;4991607;28;20097;-66
2021/08/21 05:03:55;;;;;;;2.45;1.50;;;15.20;99.90;;;;;;4993087;28;20390;-68
2021/08/21 05:06:22;;;;;;;3.28;1.02;;;15.20;99.90;;;;;;4993342;28;20076;-65
2021/08/21 05:08:49;;;;;;;2.78;1.35;;;15.20;99.90;;;;;;4993039;28;20089;-67
2021/08/21 05:11:16;;;;;;;1.35;1.25;;;15.30;99.90;;;;;;4991647;28;20138;-65
2021/08/21 05:13:43;;;;;;;1.63;1.50;;;15.30;99.90;;;;;;4993257;28;20054;-65
2021/08/21 05:16:10;;;;;;;2.90;2.70;;;15.30;99.90;;;;;;4994479;28;20047;-65
2021/08/21 05:19:25;;;;;;;3.67;2.75;;;15.30;99.90;;;;;;4985420;28;20058;-66
2021/08/21 05:21:55;;;;;;;2.00;1.75;;;15.30;99.90;;;;;;4991686;28;20046;-69
2021/08/21 05:24:23;;;;;;;3.50;3.20;;;15.30;99.90;;;;;;4992805;28;20113;-66
2021/08/21 05:26:50;;;;;;;5.28;3.42;;;15.30;99.90;;;;;;4994233;28;20137;-74
2021/08/21 05:29:18;;;;;;;2.03;1.52;;;15.30;99.90;;;;;;4991092;28;20105;-66
2021/08/21 05:31:45;;;;;;;2.40;2.00;;;15.40;99.90;;;;;;4992586;28;20043;-68
2021/08/21 05:34:13;;;;;;;1.85;1.20;;;15.40;99.90;;;;;;4994021;28;20356;-65
2021/08/21 05:36:40;;;;;;;1.65;1.45;;;15.30;99.90;;;;;;4992537;28;20065;-65
2021/08/21 05:39:10;;;;;;;2.53;1.55;;;15.40;99.90;;;;;;4994137;28;20053;-66
2021/08/21 05:41:38;;;;;;;1.50;1.40;;;15.40;99.90;;;;;;4992423;28;20074;-69
2021/08/21 05:44:05;;;;;;;1.10;1.00;;;15.40;99.90;;;;;;4993906;28;20078;-67
2021/08/21 05:46:32;;;;;;;5.75;1.80;;;15.40;99.90;;;;;;4994017;28;20058;-69
2021/08/21 05:48:59;;;;;;;1.75;1.27;;;15.50;99.90;;;;;;4993548;28;20054;-65
2021/08/21 05:51:29;;;;;;;1.40;1.08;;;15.50;99.90;;;;;;4992505;28;20108;-68
2021/08/21 05:53:57;;;;;;;2.83;1.20;;;15.40;99.90;;;;;;4993454;28;20553;-68
2021/08/21 05:56:25;;;;;;;1.40;1.13;;;15.50;99.90;;;;;;4993846;28;20085;-68
2021/08/21 05:58:52;;;;;;;1.25;0.98;;;15.50;99.90;;;;;;4993665;28;20353;-76
2021/08/21 06:01:19;;;;;;;2.00;1.05;;;15.50;99.90;;;;;;4991982;28;20153;-71
2021/08/21 06:03:46;;;;;;;1.23;1.10;;;15.50;99.90;;;;;;4993504;28;20137;-66
2021/08/21 06:06:13;;;;;;;2.13;1.00;;;15.50;99.90;;;;;;4993412;28;20050;-69
2021/08/21 06:08:40;;;;;;;3.15;1.00;;;15.50;99.90;;;;;;4992300;28;20112;-67
2021/08/21 06:11:07;;;;;;;1.35;0.98;;;15.50;99.90;;;;;;4992280;28;20053;-68
2021/08/21 06:13:39;;;;;;;1.13;0.98;;;15.50;99.90;;;;;;4992098;28;20057;-71
2021/08/21 06:16:05;;;;;;;2.28;1.40;;;15.50;99.90;;;;;;4993304;28;20066;-65
2021/08/21 06:18:33;;;;;;;1.40;1.30;;;15.60;99.90;;;;;;4993202;28;20138;-68
2021/08/21 06:21:00;;;;;;;2.70;0.85;;;15.60;99.90;;;;;;4992804;28;20465;-67
2021/08/21 06:23:27;;;;;;;1.92;1.20;;;15.60;99.90;;;;;;4990155;28;20129;-70
2021/08/21 06:25:54;;;;;;;1.52;0.65;;;15.50;99.90;;;;;;4993021;28;20042;-65
2021/08/21 06:28:24;;;;;;;1.90;0.88;;;15.60;99.90;;;;;;4993044;28;20042;-66
2021/08/21 06:30:51;;;;;;;1.77;0.85;;;15.60;99.90;;;;;;4993036;28;20109;-72
2021/08/21 06:33:18;;;;;;;0.85;0.73;;;15.60;99.90;;;;;;4991057;28;20449;-68
2021/08/21 06:35:45;;;;;;;0.98;0.50;;;15.60;99.90;;;;;;4992586;28;20448;-65
2021/08/21 06:38:12;;;;;;;2.83;0.60;;;15.70;99.90;;;;;;4992404;28;20054;-65
2021/08/21 06:40:39;;;;;;;9.80;2.00;;;15.70;99.90;;;;;;4992678;28;20137;-65
2021/08/21 06:43:06;;;;;;;1.98;0.60;;;15.70;99.90;;;;;;4992823;28;20054;-65
2021/08/21 06:45:53;;;;;;;0.65;0.50;;;15.80;99.90;;;;;;4989581;28;20050;-67
2021/08/21 06:48:20;;;;;;;1.05;0.70;;;15.80;99.90;;;;;;4992677;28;20481;-65
2021/08/21 06:50:47;;;;;;;0.63;0.40;;;15.80;99.90;;;;;;4992719;28;20048;-69
2021/08/21 06:53:15;;;;;;;0.90;0.60;;;15.80;99.90;;;;;;4991308;28;20105;-65
2021/08/21 06:55:42;;;;;;;0.68;0.68;;;15.80;99.90;;;;;;4992442;28;20077;-65
2021/08/21 06:58:09;;;;;;;1.58;0.82;;;15.80;99.90;;;;;;4992183;28;20080;-67
2021/08/21 07:00:37;;;;;;;0.65;0.57;;;15.90;99.90;;;;;;4992710;28;20050;-68
2021/08/21 07:03:04;;;;;;;0.40;0.40;;;16.00;99.90;;;;;;4992060;28;20066;-65
2021/08/21 07:05:31;;;;;;;0.70;0.60;;;16.00;99.90;;;;;;4990940;28;20066;-66
2021/08/21 07:07:58;;;;;;;1.08;0.55;;;16.10;99.90;;;;;;4992172;28;20077;-65
2021/08/21 07:10:25;;;;;;;0.80;0.70;;;16.20;99.90;;;;;;4992037;28;20508;-65
2021/08/21 07:12:52;;;;;;;0.77;0.77;;;16.20;99.90;;;;;;4992325;28;20408;-75
2021/08/21 07:15:19;;;;;;;1.58;1.48;;;16.20;99.90;;;;;;4991090;28;20117;-67
2021/08/21 07:17:46;;;;;;;1.77;0.80;;;16.20;99.90;;;;;;4991896;28;20117;-68
2021/08/21 07:20:13;;;;;;;0.88;0.60;;;16.20;99.90;;;;;;4992045;28;20151;-68
2021/08/21 07:22:40;;;;;;;0.55;0.43;;;16.10;99.90;;;;;;4992047;28;20110;-66
2021/08/21 07:25:07;;;;;;;0.50;0.50;;;16.10;99.90;;;;;;4992133;28;20074;-71
2021/08/21 07:27:34;;;;;;;0.50;0.50;;;16.10;99.90;;;;;;4990740;28;20177;-65
2021/08/21 07:30:05;;;;;;;1.15;0.80;;;16.10;99.90;;;;;;4991883;28;20507;-65
2021/08/21 07:32:32;;;;;;;1.60;1.02;;;16.10;99.90;;;;;;4992160;28;20399;-65
2021/08/21 07:34:59;;;;;;;1.33;0.55;;;16.10;99.90;;;;;;4990269;28;20042;-67
2021/08/21 07:37:26;;;;;;;2.55;0.73;;;16.00;99.90;;;;;;4990510;28;20066;-65
2021/08/21 07:39:53;;;;;;;1.10;0.70;;;16.10;99.90;;;;;;4991803;28;20077;-73
2021/08/21 07:42:20;;;;;;;0.98;0.95;;;16.10;99.90;;;;;;4990274;28;20124;-66
2021/08/21 07:44:47;;;;;;;0.60;0.60;;;16.10;99.90;;;;;;4991541;28;20081;-65
2021/08/21 07:47:14;;;;;;;1.38;0.70;;;16.00;99.90;;;;;;4989961;28;20404;-65
2021/08/21 07:49:41;;;;;;;0.65;0.55;;;16.10;99.90;;;;;;4991746;28;20125;-66
2021/08/21 07:52:08;;;;;;;0.50;0.50;;;16.10;99.90;;;;;;4991611;28;20054;-65
2021/08/21 07:54:35;;;;;;;0.60;0.50;;;16.20;99.90;;;;;;4991335;28;20549;-65
2021/08/21 07:57:02;;;;;;;3.55;0.68;;;16.20;99.90;;;;;;4990793;28;20137;-65
2021/08/21 07:59:29;;;;;;;0.93;0.50;;;16.20;99.90;;;;;;4989433;28;20054;-66
2021/08/21 08:01:56;;;;;;;0.95;0.47;;;16.10;99.90;;;;;;4990898;28;20069;-72
2021/08/21 08:04:23;;;;;;;0.40;0.32;;;16.20;99.90;;;;;;4991793;28;20057;-65
2021/08/21 08:06:50;;;;;;;1.38;0.63;;;16.20;99.90;;;;;;4991222;28;20080;-65
2021/08/21 08:09:17;;;;;;;0.40;0.30;;;16.20;99.90;;;;;;4989839;28;20126;-66
2021/08/21 08:11:44;;;;;;;2.38;0.60;;;16.20;99.90;;;;;;4991132;28;20054;-66
2021/08/21 08:14:10;;;;;;;0.85;0.60;;;16.20;99.90;;;;;;4991095;28;20058;-68
2021/08/21 08:16:37;;;;;;;1.33;0.90;;;16.20;99.90;;;;;;4991231;28;20070;-68
2021/08/21 08:19:09;;;;;;;3.15;1.15;;;16.10;99.90;;;;;;4991331;28;20101;-66
2021/08/21 08:21:36;;;;;;;1.60;0.77;;;16.10;99.90;;;;;;4989820;28;20066;-66
2021/08/21 08:24:03;;;;;;;2.15;0.90;;;16.30;99.90;;;;;;4990700;28;20109;-67
2021/08/21 08:26:30;;;;;;;1.65;0.88;;;16.30;99.90;;;;;;4991150;28;20100;-65
2021/08/21 08:28:57;;;;;;;3.28;0.85;;;16.20;99.90;;;;;;4991177;28;20105;-68
2021/08/21 08:31:24;;;;;;;1.42;0.90;;;16.30;99.90;;;;;;4989578;28;20050;-65
2021/08/21 08:33:51;;;;;;;1.65;0.50;;;16.20;99.90;;;;;;4990912;28;20057;-67
2021/08/21 08:36:18;;;;;;;3.05;1.38;;;16.30;99.90;;;;;;4990961;28;20088;-68
2021/08/21 08:38:44;;;;;;;3.72;1.42;;;16.40;99.90;;;;;;4991610;28;20046;-67
2021/08/21 08:41:11;;;;;;;1.38;0.77;;;16.40;99.90;;;;;;4989618;28;20133;-68
2021/08/21 08:43:41;;;;;;;2.50;1.77;;;16.40;99.90;;;;;;4990830;28;20046;-65
2021/08/21 08:46:09;;;;;;;1.45;0.90;;;16.50;99.90;;;;;;4991099;28;20074;-65
2021/08/21 08:48:37;;;;;;;1.27;0.73;;;16.50;99.90;;;;;;4991416;28;20477;-67
2021/08/21 08:51:04;;;;;;;1.92;0.80;;;16.50;99.90;;;;;;4991222;28;20078;-66
2021/08/21 08:53:33;;;;;;;0.50;0.40;;;16.50;99.90;;;;;;4989903;28;20106;-70
2021/08/21 08:56:00;;;;;;;3.15;0.77;;;16.50;99.90;;;;;;4990686;28;20137;-65
2021/08/21 08:58:27;;;;;;;1.00;0.77;;;16.50;99.90;;;;;;4990840;28;20137;-69
2021/08/21 09:00:54;;;;;;;0.40;0.40;;;16.70;99.90;;;;;;4990880;28;20089;-67
2021/08/21 09:03:27;;;;;;;1.40;0.80;;;16.70;99.90;;;;;;4989306;28;20137;-74
2021/08/21 09:05:55;;;;;;;3.15;0.73;;;16.80;99.90;;;;;;4990966;28;20392;-73
2021/08/21 09:08:27;;;;;;;1.25;0.90;;;16.90;99.90;;;;;;4992528;28;20085;-66
2021/08/21 09:10:58;;;;;;;0.38;0.20;;;16.90;99.90;;;;;;4994587;28;20050;-73
2021/08/21 09:13:26;;;;;;;2.25;0.43;;;16.90;99.90;;;;;;4992875;28;20054;-67
2021/08/21 09:15:58;;;;;;;0.52;0.52;;;16.80;99.90;;;;;;4994522;28;20100;-75
2021/08/21 09:18:29;;;;;;;1.63;0.60;;;16.90;99.90;;;;;;4994766;28;20391;-66
2021/08/21 09:21:10;;;;;;;3.28;0.98;;;16.90;99.90;;;;;;4994296;28;20053;-65
2021/08/21 09:23:46;;;;;;;0.80;0.80;;;16.90;99.90;;;;;;4992695;28;20046;-77
2021/08/21 09:26:14;;;;;;;0.57;0.30;;;16.80;99.90;;;;;;4994671;28;20089;-66
2021/08/21 09:28:43;;;;;;;0.82;0.40;;;16.80;99.90;;;;;;4994312;28;20046;-66
2021/08/21 09:31:11;;;;;;;0.82;0.30;;;16.80;99.90;;;;;;4991699;28;20359;-66
2021/08/21 09:33:50;;;;;;;0.20;0.20;;;16.60;99.90;;;;;;4994196;28;20077;-67
2021/08/21 09:36:34;;;;;;;0.30;0.30;;;16.80;99.90;;;;;;4993986;28;20404;-69
2021/08/21 09:39:11;;;;;;;0.63;0.30;;;16.90;99.90;;;;;;4993869;28;20105;-67
2021/08/21 09:41:57;;;;;;;0.47;0.47;;;16.90;99.90;;;;;;4992902;28;20046;-69
2021/08/21 09:44:35;;;;;;;2.92;0.40;;;17.10;99.90;;;;;;4993788;28;20146;-65
2021/08/21 09:47:20;;;;;;;0.38;0.38;;;17.10;99.90;;;;;;4994373;28;20046;-68
2021/08/21 09:49:47;;;;;;;1.58;0.30;;;17.00;99.90;;;;;;4992661;28;20058;-71
2021/08/21 09:52:16;;;;;;;1.70;0.40;;;17.00;99.90;;;;;;4993711;28;20077;-71
2021/08/21 09:55:02;;;;;;;1.42;0.45;;;17.00;99.90;;;;;;4994037;28;20085;-66
2021/08/21 09:57:29;;;;;;;6.50;1.25;;;17.10;99.90;;;;;;4992242;28;20049;-71
2021/08/21 09:59:59;;;;;;;0.57;0.40;;;17.10;99.90;;;;;;4993692;28;20104;-72
2021/08/21 10:02:29;;;;;;;;;;;17.20;99.90;;;;;;4993914;28;20050;-65
2021/08/21 10:04:57;;;;;;;1.75;0.32;;;17.30;99.90;;;;;;4993341;28;19922;-67
2021/08/21 10:07:37;;;;;;;0.70;0.50;;;17.30;99.90;;;;;;4992180;28;20050;-67
2021/08/21 10:10:07;;;;;;;1.45;0.60;;;17.30;99.90;;;;;;4993094;28;20042;-70
2021/08/21 10:12:36;;;;;;;1.05;0.50;;;17.30;99.90;;;;;;4993420;28;20058;-66
2021/08/21 10:15:04;;;;;;;0.47;0.30;;;17.20;99.90;;;;;;4991755;28;20080;-66
2021/08/21 10:17:31;;;;;;;2.33;1.35;;;17.30;99.90;;;;;;4991397;28;20093;-68
2021/08/21 10:19:59;;;;;;;2.33;0.98;;;17.40;99.90;;;;;;4992158;28;20138;-70
2021/08/21 10:22:28;;;;;;;0.70;0.50;;;17.50;99.90;;;;;;4993211;28;20057;-65
2021/08/21 10:25:01;;;;;;;0.73;0.47;;;17.50;99.90;;;;;;4993118;28;20137;-72
2021/08/21 10:27:45;;;;;;;1.08;0.40;;;17.40;99.90;;;;;;4990476;28;20046;-67
2021/08/21 10:30:20;;;;;;;2.65;0.40;;;17.50;99.90;;;;;;4993164;28;20054;-67
2021/08/21 10:33:02;;;;;;;0.60;0.35;;;17.40;99.90;;;;;;4992491;28;20050;-68
2021/08/21 10:35:46;;;;;;;0.63;0.20;;;17.40;99.90;;;;;;4991467;28;20046;-66
2021/08/21 10:38:29;;;;;;;0.70;0.50;;;17.30;99.90;;;;;;4992700;28;20124;-67
2021/08/21 10:41:07;;;;;;;0.68;0.50;;;17.30;99.90;;;;;;4993063;28;20050;-70
2021/08/21 10:43:56;;;;;;;4.00;1.02;;;17.30;99.90;;;;;;4991328;28;20104;-68
2021/08/21 10:46:28;;;;;;;0.98;0.73;;;17.10;99.90;;;;;;4992965;28;20104;-66
2021/08/21 10:48:56;;;;;;;0.30;0.30;;;17.10;99.90;;;;;;4991220;28;20050;-66
2021/08/21 10:51:37;;;;;;;0.38;0.30;;;17.10;99.90;;;;;;4990709;28;20137;-68
2021/08/21 10:54:19;;;;;;;0.30;0.30;;;17.20;99.90;;;;;;4992615;28;20125;-72
2021/08/21 10:56:46;;;;;;;1.38;0.68;;;17.30;99.90;;;;;;4992736;28;20452;-66
2021/08/21 10:59:43;;;;;;;0.52;0.47;;;17.40;99.90;;;;;;4991233;28;20092;-71
2021/08/21 11:02:25;;;;;;;0.80;0.32;;;17.60;99.90;;;;;;4992216;28;20138;-67
2021/08/21 11:04:54;;;;;;;0.43;0.40;;;17.70;99.90;;;;;;4992567;28;20429;-68
2021/08/21 11:07:29;;;;;;;0.75;0.75;;;17.70;99.90;;;;;;4991110;28;20054;-66
2021/08/21 11:10:14;;;;;;;0.40;0.40;;;17.70;99.90;;;;;;4992246;28;20113;-67
2021/08/21 11:12:44;;;;;;;0.75;0.30;;;17.50;99.90;;;;;;4992272;28;20108;-66
2021/08/21 11:15:20;;;;;;;0.60;0.60;;;17.50;99.90;;;;;;4990429;28;20054;-72
2021/08/21 11:17:48;;;;;;;0.40;0.30;;;17.40;99.90;;;;;;4992584;28;20074;-67
2021/08/21 11:20:34;;;;;;;0.57;0.30;;;17.50;99.90;;;;;;4992278;28;20050;-65
2021/08/21 11:23:07;;;;;;;0.63;0.60;;;17.80;99.90;;;;;;4992022;28;20455;-69
2021/08/21 11:25:42;;;;;;;0.55;0.40;;;18.00;99.90;;;;;;4990317;28;20066;-65
2021/08/21 11:28:13;;;;;;;0.20;0.20;;;18.10;99.90;;;;;;4992193;28;20105;-68
2021/08/21 11:30:40;;;;;;;0.25;0.25;;;17.90;99.90;;;;;;4992003;28;20054;-69
2021/08/21 11:33:08;;;;;;;0.45;0.30;;;17.70;99.90;;;;;;4992167;28;20047;-68
2021/08/21 11:35:37;;;;;;;0.60;0.60;;;17.80;99.90;;;;;;4990226;28;20096;-69
2021/08/21 11:38:09;;;;;;;0.30;0.30;;;17.90;99.90;;;;;;4991636;28;20058;-68
2021/08/21 11:40:39;;;;;;;2.20;0.40;;;17.80;99.90;;;;;;4991483;28;20081;-71
2021/08/21 11:43:11;;;;;;;0.65;0.55;;;17.70;99.90;;;;;;4991594;28;20046;-65
2021/08/21 11:45:39;;;;;;;0.47;0.45;;;17.70;99.90;;;;;;4989836;28;20456;-69
2021/08/21 11:48:07;;;;;;;2.10;1.52;;;17.40;99.90;;;;;;4991696;28;20412;-66
2021/08/21 11:50:36;;;;;;;0.85;0.30;;;17.40;99.90;;;;;;4991177;28;20461;-67
2021/08/21 11:53:24;;;;;;;0.70;0.40;;;17.60;99.90;;;;;;4990145;28;20054;-73
2021/08/21 11:55:54;;;;;;;0.68;0.30;;;17.70;99.90;;;;;;4990533;28;20053;-73
2021/08/21 11:58:29;;;;;;;0.20;0.20;;;17.70;99.90;;;;;;4991644;28;20084;-79
2021/08/21 12:01:17;;;;;;;0.85;0.45;;;17.60;99.90;;;;;;4989840;28;20169;-67
2021/08/21 12:06:40;;;;;;;4.47;0.73;;;17.50;99.90;;;;;;4991451;28;20078;-65
2021/08/21 12:09:17;;;;;;;2.20;0.40;;;17.50;99.90;;;;;;4983075;28;20073;-68
2021/08/21 12:11:49;;;;;;;0.55;0.40;;;17.80;99.90;;;;;;4990518;28;20050;-65
2021/08/21 12:14:18;;;;;;;0.43;0.28;;;18.00;99.90;;;;;;4991614;28;20101;-66
2021/08/21 12:16:46;;;;;;;0.40;0.30;;;17.90;99.90;;;;;;4989947;28;20073;-69
2021/08/21 12:19:14;;;;;;;0.70;0.52;;;17.90;99.90;;;;;;4989644;28;20137;-70
2021/08/21 12:21:41;;;;;;;0.40;0.40;;;17.80;99.90;;;;;;4991281;28;20133;-66
2021/08/21 12:24:11;;;;;;;0.82;0.45;;;18.00;99.90;;;;;;4990999;28;20046;-65
2021/08/21 12:26:44;;;;;;;3.65;0.40;;;18.20;99.90;;;;;;4991053;28;20058;-68
2021/08/21 12:29:31;;;;;;;0.32;0.30;;;18.00;99.90;;;;;;4989392;28;20050;-68
2021/08/21 12:32:00;;;;;;;1.10;0.55;;;18.20;99.90;;;;;;4991186;28;20497;-68
2021/08/21 12:34:28;;;;;;;0.43;0.35;;;18.40;99.90;;;;;;4991098;28;20077;-68
2021/08/21 12:37:03;;;;;;;0.95;0.40;;;18.20;99.90;;;;;;4990884;28;20509;-66
2021/08/21 12:39:30;;;;;;;0.88;0.25;;;18.40;99.90;;;;;;4989873;28;20444;-66
2021/08/21 12:42:00;;;;;;;2.85;0.47;;;18.50;99.90;;;;;;4991176;28;20105;-69
2021/08/21 12:44:37;;;;;;;0.10;0.10;;;18.70;99.90;;;;;;4994633;28;20077;-69
2021/08/21 12:47:12;;;;;;;0.20;0.20;;;18.70;99.90;;;;;;4995177;28;20100;-69
2021/08/21 12:49:40;;;;;;;0.57;0.20;;;18.80;99.90;;;;;;4993536;28;20593;-66
2021/08/21 12:52:11;;;;;;;0.10;0.10;;;18.60;99.90;;;;;;4994880;28;20054;-68
2021/08/21 12:54:42;;;;;;;0.20;0.10;;;18.40;99.90;;;;;;4995053;28;20388;-66
2021/08/21 12:57:20;;;;;;;0.30;0.22;;;18.30;99.90;;;;;;4994446;28;20104;-69
2021/08/21 13:00:01;;;;;;;0.40;0.20;;;18.30;99.90;;;;;;4993803;28;20468;-65
2021/08/21 13:02:39;;;;;;;1.65;0.20;;;18.50;99.90;;;;;;4993391;28;20058;-71
2021/08/21 13:05:07;;;;;;;0.20;0.13;;;18.60;99.90;;;;;;4994922;28;20046;-68
2021/08/21 13:07:48;;;;;;;1.17;0.55;;;18.40;99.90;;;;;;4993565;28;20073;-66